CEB9 VHHH-RPLL
Flight info
| Callsign | CEB9 |
|---|---|
| Flight time | 1h 28m |
| Altitude | 35000 |
| Route | DALOL V642 NOMAN A461 AVMUP W16 TADEL |
| Aircraft | A321/M-SDE3FGHIRWY/LB1 |
Departure
| Time | 2026-05-05 06:10 |
|---|---|
| Airport | Hong Kong International Airport (VHHH) |
Arrival
| Time | 2026-05-05 07:38 |
|---|---|
| Airport | Ninoy Aquino International Airport (RPLL) |
| Time | Latitude | Longitude | Altitude | Speed | Heading |
|---|---|---|---|---|---|
| 2026-05-05 05:55 | 22.31205 | 113.91795 | 32 ft | 0 kts | 251° |
| 2026-05-05 05:57 | 22.31216 | 113.91816 | 31 ft | 4 kts | 224° |
| 2026-05-05 05:57 | 22.31231 | 113.91836 | 32 ft | 1 kts | 251° |
| 2026-05-05 05:57 | 22.31241 | 113.91857 | 32 ft | 4 kts | 215° |
| 2026-05-05 05:58 | 22.31263 | 113.91863 | 31 ft | 4 kts | 166° |
| 2026-05-05 05:58 | 22.31275 | 113.91859 | 32 ft | 0 kts | 161° |
| 2026-05-05 06:01 | 22.31233 | 113.91875 | 32 ft | 13 kts | 161° |
| 2026-05-05 06:02 | 22.31130 | 113.91913 | 32 ft | 16 kts | 161° |
| 2026-05-05 06:02 | 22.31059 | 113.91958 | 32 ft | 10 kts | 116° |
| 2026-05-05 06:02 | 22.31077 | 113.92012 | 31 ft | 7 kts | 27° |
| 2026-05-05 06:02 | 22.31115 | 113.92010 | 32 ft | 4 kts | 348° |
| 2026-05-05 06:03 | 22.31133 | 113.92005 | 32 ft | 1 kts | 342° |
| 2026-05-05 06:03 | 22.31144 | 113.92000 | 32 ft | 5 kts | 338° |
| 2026-05-05 06:03 | 22.31196 | 113.91981 | 32 ft | 14 kts | 341° |
| 2026-05-05 06:03 | 22.31323 | 113.91933 | 32 ft | 22 kts | 341° |
| 2026-05-05 06:04 | 22.31449 | 113.91882 | 32 ft | 16 kts | 321° |
| 2026-05-05 06:04 | 22.31454 | 113.91787 | 32 ft | 12 kts | 252° |
| 2026-05-05 06:04 | 22.31433 | 113.91717 | 32 ft | 8 kts | 252° |
| 2026-05-05 06:04 | 22.31419 | 113.91671 | 32 ft | 5 kts | 252° |
| 2026-05-05 06:05 | 22.31407 | 113.91633 | 32 ft | 8 kts | 251° |
| 2026-05-05 06:05 | 22.31391 | 113.91589 | 32 ft | 6 kts | 248° |
| 2026-05-05 06:05 | 22.31368 | 113.91521 | 32 ft | 14 kts | 251° |
| 2026-05-05 06:05 | 22.31325 | 113.91387 | 32 ft | 23 kts | 251° |
| 2026-05-05 06:06 | 22.31263 | 113.91194 | 32 ft | 31 kts | 251° |
| 2026-05-05 06:06 | 22.31183 | 113.90946 | 32 ft | 38 kts | 250° |
| 2026-05-05 06:06 | 22.31090 | 113.90658 | 32 ft | 40 kts | 251° |
| 2026-05-05 06:06 | 22.31003 | 113.90387 | 32 ft | 36 kts | 251° |
| 2026-05-05 06:07 | 22.30925 | 113.90145 | 32 ft | 32 kts | 251° |
| 2026-05-05 06:07 | 22.30869 | 113.89975 | 32 ft | 15 kts | 250° |
| 2026-05-05 06:07 | 22.30843 | 113.89879 | 32 ft | 12 kts | 268° |
| 2026-05-05 06:07 | 22.30888 | 113.89832 | 32 ft | 8 kts | 341° |
| 2026-05-05 06:08 | 22.30937 | 113.89814 | 31 ft | 7 kts | 341° |
| 2026-05-05 06:08 | 22.30990 | 113.89794 | 31 ft | 12 kts | 340° |
| 2026-05-05 06:08 | 22.31071 | 113.89770 | 30 ft | 11 kts | 7° |
| 2026-05-05 06:08 | 22.31101 | 113.89828 | 30 ft | 8 kts | 71° |
| 2026-05-05 06:09 | 22.31132 | 113.89926 | 30 ft | 33 kts | 71° |
| 2026-05-05 06:09 | 22.31285 | 113.90400 | 31 ft | 97 kts | 71° |
| 2026-05-05 06:09 | 22.31563 | 113.91262 | 33 ft | 144 kts | 70° |
| 2026-05-05 06:09 | 22.31931 | 113.92409 | 139 ft | 171 kts | 70° |
| 2026-05-05 06:10 | 22.32314 | 113.93575 | 939 ft | 163 kts | 71° |
| 2026-05-05 06:10 | 22.32703 | 113.94716 | 1774 ft | 160 kts | 73° |
| 2026-05-05 06:10 | 22.33085 | 113.95880 | 2260 ft | 172 kts | 72° |
| 2026-05-05 06:10 | 22.33445 | 113.97184 | 2428 ft | 189 kts | 81° |
| 2026-05-05 06:11 | 22.33667 | 113.98631 | 2547 ft | 203 kts | 82° |
| 2026-05-05 06:11 | 22.33911 | 114.00164 | 2699 ft | 217 kts | 81° |
| 2026-05-05 06:11 | 22.34178 | 114.01821 | 3096 ft | 222 kts | 81° |
| 2026-05-05 06:11 | 22.34399 | 114.03474 | 3513 ft | 224 kts | 90° |
| 2026-05-05 06:12 | 22.34152 | 114.05142 | 3928 ft | 227 kts | 114° |
| 2026-05-05 06:12 | 22.33379 | 114.06615 | 4461 ft | 226 kts | 131° |
| 2026-05-05 06:12 | 22.32336 | 114.07962 | 4687 ft | 244 kts | 131° |
| 2026-05-05 06:12 | 22.31245 | 114.09428 | 5067 ft | 253 kts | 131° |
| 2026-05-05 06:13 | 22.30129 | 114.10953 | 5448 ft | 267 kts | 131° |
| 2026-05-05 06:13 | 22.28963 | 114.12555 | 5969 ft | 275 kts | 131° |
| 2026-05-05 06:13 | 22.27771 | 114.14193 | 6576 ft | 280 kts | 131° |
| 2026-05-05 06:13 | 22.26556 | 114.15854 | 7138 ft | 284 kts | 131° |
| 2026-05-05 06:14 | 22.25317 | 114.17543 | 7783 ft | 289 kts | 131° |
| 2026-05-05 06:14 | 22.24062 | 114.19249 | 8506 ft | 293 kts | 131° |
| 2026-05-05 06:14 | 22.22783 | 114.20983 | 9238 ft | 297 kts | 131° |
| 2026-05-05 06:14 | 22.21487 | 114.22737 | 9885 ft | 302 kts | 132° |
| 2026-05-05 06:15 | 22.20159 | 114.24531 | 10309 ft | 315 kts | 132° |
| 2026-05-05 06:15 | 22.18738 | 114.26442 | 10444 ft | 336 kts | 132° |
| 2026-05-05 06:15 | 22.17230 | 114.28468 | 10564 ft | 356 kts | 131° |
| 2026-05-05 06:15 | 22.15647 | 114.30602 | 10682 ft | 373 kts | 131° |
| 2026-05-05 06:16 | 22.13991 | 114.32841 | 10799 ft | 390 kts | 131° |
| 2026-05-05 06:16 | 22.12268 | 114.35175 | 10923 ft | 405 kts | 131° |
| 2026-05-05 06:16 | 22.10491 | 114.37585 | 11144 ft | 415 kts | 131° |
| 2026-05-05 06:16 | 22.08682 | 114.40033 | 11547 ft | 419 kts | 131° |
| 2026-05-05 06:17 | 22.06861 | 114.42498 | 11986 ft | 422 kts | 131° |
| 2026-05-05 06:17 | 22.05023 | 114.44986 | 12436 ft | 425 kts | 131° |
| 2026-05-05 06:17 | 22.03173 | 114.47489 | 12964 ft | 429 kts | 131° |
| 2026-05-05 06:17 | 22.01308 | 114.50007 | 13508 ft | 432 kts | 131° |
| 2026-05-05 06:18 | 21.99447 | 114.52510 | 13945 ft | 436 kts | 131° |
| 2026-05-05 06:18 | 21.97542 | 114.55065 | 14327 ft | 439 kts | 132° |
| 2026-05-05 06:18 | 21.95624 | 114.57641 | 14724 ft | 442 kts | 131° |
| 2026-05-05 06:18 | 21.93697 | 114.60232 | 15066 ft | 445 kts | 132° |
| 2026-05-05 06:19 | 21.91752 | 114.62847 | 15401 ft | 447 kts | 132° |
| 2026-05-05 06:19 | 21.89804 | 114.65466 | 15746 ft | 450 kts | 132° |
| 2026-05-05 06:19 | 21.87838 | 114.68109 | 16064 ft | 453 kts | 132° |
| 2026-05-05 06:19 | 21.85867 | 114.70758 | 16391 ft | 456 kts | 132° |
| 2026-05-05 06:20 | 21.83877 | 114.73424 | 16722 ft | 458 kts | 132° |
| 2026-05-05 06:20 | 21.81875 | 114.76106 | 17060 ft | 461 kts | 132° |
| 2026-05-05 06:20 | 21.79862 | 114.78805 | 17401 ft | 463 kts | 132° |
| 2026-05-05 06:20 | 21.77844 | 114.81517 | 17723 ft | 466 kts | 132° |
| 2026-05-05 06:21 | 21.75810 | 114.84242 | 18055 ft | 468 kts | 132° |
| 2026-05-05 06:21 | 21.73762 | 114.86979 | 18365 ft | 470 kts | 132° |
| 2026-05-05 06:21 | 21.71708 | 114.89722 | 18626 ft | 473 kts | 132° |
| 2026-05-05 06:21 | 21.69643 | 114.92480 | 18883 ft | 476 kts | 132° |
| 2026-05-05 06:22 | 21.67562 | 114.95266 | 19127 ft | 478 kts | 132° |
| 2026-05-05 06:22 | 21.65473 | 114.98059 | 19375 ft | 480 kts | 132° |
| 2026-05-05 06:22 | 21.63373 | 115.00863 | 19630 ft | 483 kts | 132° |
| 2026-05-05 06:22 | 21.61260 | 115.03684 | 19875 ft | 485 kts | 132° |
| 2026-05-05 06:23 | 21.59141 | 115.06509 | 20116 ft | 488 kts | 132° |
| 2026-05-05 06:23 | 21.57004 | 115.09355 | 20361 ft | 490 kts | 132° |
| 2026-05-05 06:23 | 21.54860 | 115.12204 | 20597 ft | 492 kts | 132° |
| 2026-05-05 06:23 | 21.52707 | 115.15073 | 20838 ft | 494 kts | 132° |
| 2026-05-05 06:24 | 21.50575 | 115.17980 | 21073 ft | 497 kts | 131° |
| 2026-05-05 06:24 | 21.48466 | 115.20934 | 21326 ft | 500 kts | 130° |
| 2026-05-05 06:24 | 21.46364 | 115.23928 | 21558 ft | 503 kts | 130° |
| 2026-05-05 06:24 | 21.44201 | 115.26867 | 21757 ft | 501 kts | 137° |
| 2026-05-05 06:25 | 21.41681 | 115.29446 | 21954 ft | 501 kts | 141° |
| 2026-05-05 06:25 | 21.39113 | 115.31985 | 22160 ft | 503 kts | 141° |
| 2026-05-05 06:25 | 21.36566 | 115.34487 | 22386 ft | 504 kts | 141° |
| 2026-05-05 06:25 | 21.33943 | 115.37055 | 22628 ft | 505 kts | 141° |
| 2026-05-05 06:26 | 21.31337 | 115.39608 | 22832 ft | 507 kts | 141° |
| 2026-05-05 06:26 | 21.28766 | 115.42134 | 23041 ft | 509 kts | 141° |
| 2026-05-05 06:26 | 21.26151 | 115.44701 | 23260 ft | 511 kts | 141° |
| 2026-05-05 06:26 | 21.23526 | 115.47277 | 23457 ft | 513 kts | 141° |
| 2026-05-05 06:27 | 21.20891 | 115.49864 | 23638 ft | 515 kts | 141° |
| 2026-05-05 06:27 | 21.15593 | 115.55060 | 23976 ft | 517 kts | 141° |
| 2026-05-05 06:27 | 21.12942 | 115.57661 | 24216 ft | 516 kts | 141° |
| 2026-05-05 06:28 | 21.10300 | 115.60253 | 24446 ft | 516 kts | 141° |
| 2026-05-05 06:28 | 21.07656 | 115.62846 | 24682 ft | 515 kts | 141° |
| 2026-05-05 06:28 | 21.05013 | 115.65437 | 24934 ft | 514 kts | 141° |
| 2026-05-05 06:28 | 21.02384 | 115.68011 | 25222 ft | 512 kts | 141° |
| 2026-05-05 06:29 | 20.99768 | 115.70571 | 25530 ft | 509 kts | 141° |
| 2026-05-05 06:29 | 20.97158 | 115.73122 | 25805 ft | 508 kts | 141° |
| 2026-05-05 06:29 | 20.94547 | 115.75672 | 26062 ft | 508 kts | 141° |
| 2026-05-05 06:29 | 20.91939 | 115.78216 | 26310 ft | 507 kts | 141° |
| 2026-05-05 06:30 | 20.89329 | 115.80757 | 26602 ft | 507 kts | 141° |
| 2026-05-05 06:30 | 20.86720 | 115.83297 | 26853 ft | 507 kts | 141° |
| 2026-05-05 06:30 | 20.84118 | 115.85832 | 27108 ft | 506 kts | 141° |
| 2026-05-05 06:30 | 20.81514 | 115.88370 | 27350 ft | 506 kts | 141° |
| 2026-05-05 06:31 | 20.79756 | 115.90083 | 27524 ft | 506 kts | 141° |
| 2026-05-05 06:31 | 20.77158 | 115.92613 | 27782 ft | 506 kts | 141° |
| 2026-05-05 06:31 | 20.73716 | 115.95961 | 28096 ft | 505 kts | 141° |
| 2026-05-05 06:31 | 20.71962 | 115.97668 | 28280 ft | 505 kts | 141° |
| 2026-05-05 06:32 | 20.69399 | 116.00161 | 28545 ft | 504 kts | 141° |
| 2026-05-05 06:32 | 20.66775 | 116.02713 | 28809 ft | 504 kts | 141° |
| 2026-05-05 06:32 | 20.64217 | 116.05197 | 29111 ft | 502 kts | 141° |
| 2026-05-05 06:32 | 20.61635 | 116.07707 | 29405 ft | 501 kts | 141° |
| 2026-05-05 06:33 | 20.59056 | 116.10210 | 29685 ft | 501 kts | 141° |
| 2026-05-05 06:33 | 20.56481 | 116.12707 | 29939 ft | 501 kts | 141° |
| 2026-05-05 06:33 | 20.53906 | 116.15203 | 30150 ft | 500 kts | 141° |
| 2026-05-05 06:33 | 20.51326 | 116.17696 | 30367 ft | 500 kts | 141° |
| 2026-05-05 06:34 | 20.48747 | 116.20189 | 30610 ft | 500 kts | 141° |
| 2026-05-05 06:34 | 20.46172 | 116.22676 | 30844 ft | 499 kts | 141° |
| 2026-05-05 06:34 | 20.43609 | 116.25154 | 31069 ft | 498 kts | 141° |
| 2026-05-05 06:34 | 20.41038 | 116.27641 | 31303 ft | 497 kts | 141° |
| 2026-05-05 06:35 | 20.38485 | 116.30106 | 31545 ft | 496 kts | 141° |
| 2026-05-05 06:35 | 20.35928 | 116.32575 | 31775 ft | 496 kts | 141° |
| 2026-05-05 06:35 | 20.33373 | 116.35044 | 32006 ft | 495 kts | 141° |
| 2026-05-05 06:35 | 20.30824 | 116.37511 | 32244 ft | 494 kts | 141° |
| 2026-05-05 06:36 | 20.28280 | 116.39969 | 32471 ft | 494 kts | 141° |
| 2026-05-05 06:36 | 20.25734 | 116.42420 | 32688 ft | 493 kts | 141° |
| 2026-05-05 06:36 | 20.23187 | 116.44867 | 32931 ft | 493 kts | 141° |
| 2026-05-05 06:36 | 20.20640 | 116.47313 | 33179 ft | 493 kts | 141° |
| 2026-05-05 06:37 | 20.18093 | 116.49762 | 33419 ft | 492 kts | 141° |
| 2026-05-05 06:37 | 20.15554 | 116.52208 | 33649 ft | 492 kts | 141° |
| 2026-05-05 06:37 | 20.13018 | 116.54654 | 33884 ft | 491 kts | 141° |
| 2026-05-05 06:37 | 20.10488 | 116.57093 | 34085 ft | 491 kts | 141° |
| 2026-05-05 06:38 | 20.07950 | 116.59534 | 34287 ft | 491 kts | 141° |
| 2026-05-05 06:38 | 20.05424 | 116.61963 | 34480 ft | 491 kts | 141° |
| 2026-05-05 06:38 | 20.02887 | 116.64400 | 34674 ft | 491 kts | 141° |
| 2026-05-05 06:38 | 20.00360 | 116.66832 | 34857 ft | 492 kts | 139° |
| 2026-05-05 06:39 | 19.97988 | 116.69472 | 34927 ft | 496 kts | 135° |
| 2026-05-05 06:39 | 19.93316 | 116.74898 | 34937 ft | 499 kts | 135° |
| 2026-05-05 06:40 | 19.88640 | 116.80346 | 34936 ft | 499 kts | 135° |
| 2026-05-05 06:40 | 19.83959 | 116.85781 | 34935 ft | 499 kts | 135° |
| 2026-05-05 06:41 | 19.79271 | 116.91217 | 34929 ft | 498 kts | 135° |
| 2026-05-05 06:41 | 19.74583 | 116.96639 | 34935 ft | 499 kts | 135° |
| 2026-05-05 06:42 | 19.69923 | 117.02005 | 34943 ft | 500 kts | 135° |
| 2026-05-05 06:42 | 19.65165 | 117.07498 | 34952 ft | 500 kts | 135° |
| 2026-05-05 06:43 | 19.60463 | 117.12931 | 34950 ft | 500 kts | 135° |
| 2026-05-05 06:43 | 19.55746 | 117.18361 | 34936 ft | 500 kts | 136° |
| 2026-05-05 06:44 | 19.51031 | 117.23781 | 34941 ft | 500 kts | 136° |
| 2026-05-05 06:44 | 19.46316 | 117.29214 | 34940 ft | 500 kts | 136° |
| 2026-05-05 06:45 | 19.41600 | 117.34638 | 34939 ft | 501 kts | 136° |
| 2026-05-05 06:45 | 19.36884 | 117.40053 | 34940 ft | 500 kts | 136° |
| 2026-05-05 06:46 | 19.32164 | 117.45472 | 34940 ft | 500 kts | 136° |
| 2026-05-05 06:46 | 19.27433 | 117.50878 | 34931 ft | 500 kts | 136° |
| 2026-05-05 06:47 | 19.22706 | 117.56285 | 34938 ft | 500 kts | 136° |
| 2026-05-05 06:47 | 19.17990 | 117.61696 | 34933 ft | 500 kts | 136° |
| 2026-05-05 06:48 | 19.13272 | 117.67105 | 34933 ft | 500 kts | 136° |
| 2026-05-05 06:48 | 19.08535 | 117.72507 | 34932 ft | 500 kts | 136° |
| 2026-05-05 06:49 | 19.03796 | 117.77890 | 34932 ft | 501 kts | 136° |
| 2026-05-05 06:49 | 18.99091 | 117.83256 | 34920 ft | 501 kts | 136° |
| 2026-05-05 06:50 | 18.94358 | 117.88653 | 34913 ft | 501 kts | 136° |
| 2026-05-05 06:50 | 18.89589 | 117.94081 | 34926 ft | 501 kts | 136° |
| 2026-05-05 06:51 | 18.84875 | 117.99426 | 34919 ft | 501 kts | 136° |
| 2026-05-05 06:51 | 18.80142 | 118.04805 | 34922 ft | 500 kts | 136° |
| 2026-05-05 06:52 | 18.75413 | 118.10190 | 34920 ft | 499 kts | 136° |
| 2026-05-05 06:52 | 18.70702 | 118.15525 | 34897 ft | 496 kts | 136° |
| 2026-05-05 06:53 | 18.65990 | 118.20862 | 34890 ft | 497 kts | 136° |
| 2026-05-05 06:53 | 18.61281 | 118.26188 | 34899 ft | 497 kts | 136° |
| 2026-05-05 06:54 | 18.56568 | 118.31523 | 34892 ft | 497 kts | 136° |
| 2026-05-05 06:54 | 18.51856 | 118.36842 | 34900 ft | 497 kts | 136° |
| 2026-05-05 06:55 | 18.47125 | 118.42168 | 34899 ft | 497 kts | 136° |
| 2026-05-05 06:55 | 18.42403 | 118.47490 | 34902 ft | 497 kts | 136° |
| 2026-05-05 06:56 | 18.37688 | 118.52814 | 34904 ft | 497 kts | 136° |
| 2026-05-05 06:56 | 18.32966 | 118.58135 | 34904 ft | 497 kts | 136° |
| 2026-05-05 06:57 | 18.28246 | 118.63440 | 34904 ft | 497 kts | 136° |
| 2026-05-05 06:57 | 18.23516 | 118.68744 | 34900 ft | 497 kts | 136° |
| 2026-05-05 06:58 | 18.18798 | 118.74042 | 34900 ft | 497 kts | 136° |
| 2026-05-05 06:58 | 18.14068 | 118.79357 | 34897 ft | 497 kts | 136° |
| 2026-05-05 06:59 | 18.09336 | 118.84663 | 34887 ft | 497 kts | 136° |
| 2026-05-05 06:59 | 18.04606 | 118.89954 | 34895 ft | 497 kts | 136° |
| 2026-05-05 07:00 | 17.99761 | 118.95101 | 34895 ft | 493 kts | 144° |
| 2026-05-05 07:00 | 17.94035 | 118.98947 | 34894 ft | 487 kts | 154° |
| 2026-05-05 07:01 | 17.88099 | 119.02389 | 34894 ft | 488 kts | 154° |
| 2026-05-05 07:01 | 17.82159 | 119.05830 | 34893 ft | 488 kts | 154° |
| 2026-05-05 07:02 | 17.76212 | 119.09282 | 34883 ft | 488 kts | 154° |
| 2026-05-05 07:02 | 17.70305 | 119.12702 | 34886 ft | 488 kts | 154° |
| 2026-05-05 07:03 | 17.64323 | 119.16152 | 34889 ft | 487 kts | 154° |
| 2026-05-05 07:03 | 17.58421 | 119.19562 | 34889 ft | 488 kts | 154° |
| 2026-05-05 07:04 | 17.52478 | 119.22993 | 34887 ft | 488 kts | 154° |
| 2026-05-05 07:04 | 17.46539 | 119.26419 | 34886 ft | 487 kts | 154° |
| 2026-05-05 07:05 | 17.40593 | 119.29850 | 34884 ft | 487 kts | 154° |
| 2026-05-05 07:05 | 17.34662 | 119.33268 | 34890 ft | 487 kts | 154° |
| 2026-05-05 07:06 | 17.28727 | 119.36684 | 34892 ft | 486 kts | 154° |
| 2026-05-05 07:06 | 17.22795 | 119.40094 | 34891 ft | 486 kts | 154° |
| 2026-05-05 07:07 | 17.16878 | 119.43494 | 34889 ft | 486 kts | 154° |
| 2026-05-05 07:07 | 17.10966 | 119.46892 | 34885 ft | 485 kts | 154° |
| 2026-05-05 07:08 | 17.05052 | 119.50295 | 34883 ft | 484 kts | 154° |
| 2026-05-05 07:08 | 16.99139 | 119.53683 | 34887 ft | 484 kts | 154° |
| 2026-05-05 07:09 | 16.93234 | 119.57066 | 34886 ft | 484 kts | 154° |
| 2026-05-05 07:09 | 16.87340 | 119.60447 | 34883 ft | 484 kts | 154° |
| 2026-05-05 07:10 | 16.81434 | 119.63819 | 34883 ft | 483 kts | 154° |
| 2026-05-05 07:10 | 16.75539 | 119.67192 | 34873 ft | 483 kts | 154° |
| 2026-05-05 07:11 | 16.69641 | 119.70561 | 34878 ft | 483 kts | 153° |
| 2026-05-05 07:11 | 16.63753 | 119.73926 | 34880 ft | 483 kts | 153° |
| 2026-05-05 07:12 | 16.57864 | 119.77286 | 34877 ft | 482 kts | 153° |
| 2026-05-05 07:12 | 16.51975 | 119.80648 | 34877 ft | 483 kts | 153° |
| 2026-05-05 07:13 | 16.46084 | 119.84012 | 34879 ft | 482 kts | 153° |
| 2026-05-05 07:13 | 16.40239 | 119.87344 | 34878 ft | 483 kts | 153° |
| 2026-05-05 07:14 | 16.34347 | 119.90688 | 34880 ft | 482 kts | 154° |
| 2026-05-05 07:14 | 16.28453 | 119.94032 | 34878 ft | 482 kts | 154° |
| 2026-05-05 07:15 | 16.22568 | 119.97378 | 34879 ft | 482 kts | 154° |
| 2026-05-05 07:15 | 16.16680 | 120.00730 | 34879 ft | 482 kts | 154° |
| 2026-05-05 07:16 | 16.10793 | 120.04075 | 34879 ft | 482 kts | 154° |
| 2026-05-05 07:16 | 16.04902 | 120.07415 | 34874 ft | 482 kts | 153° |
| 2026-05-05 07:17 | 15.99019 | 120.10742 | 33785 ft | 481 kts | 153° |
| 2026-05-05 07:17 | 15.97032 | 120.11866 | 32906 ft | 482 kts | 153° |
| 2026-05-05 07:17 | 15.93184 | 120.14055 | 31663 ft | 471 kts | 153° |
| 2026-05-05 07:17 | 15.91248 | 120.15157 | 31061 ft | 465 kts | 153° |
| 2026-05-05 07:18 | 15.88465 | 120.16736 | 30118 ft | 460 kts | 153° |
| 2026-05-05 07:18 | 15.85657 | 120.18324 | 29012 ft | 456 kts | 153° |
| 2026-05-05 07:18 | 15.82865 | 120.19895 | 28052 ft | 458 kts | 154° |
| 2026-05-05 07:18 | 15.80053 | 120.21477 | 26973 ft | 460 kts | 153° |
| 2026-05-05 07:19 | 15.77236 | 120.23062 | 25832 ft | 462 kts | 153° |
| 2026-05-05 07:19 | 15.74406 | 120.24661 | 24772 ft | 464 kts | 153° |
| 2026-05-05 07:19 | 15.71574 | 120.26265 | 23722 ft | 464 kts | 153° |
| 2026-05-05 07:19 | 15.68749 | 120.27867 | 22816 ft | 460 kts | 153° |
| 2026-05-05 07:20 | 15.65966 | 120.29444 | 22074 ft | 452 kts | 153° |
| 2026-05-05 07:20 | 15.63224 | 120.30991 | 21354 ft | 446 kts | 153° |
| 2026-05-05 07:20 | 15.60514 | 120.32518 | 20654 ft | 441 kts | 153° |
| 2026-05-05 07:20 | 15.57838 | 120.34028 | 19967 ft | 434 kts | 153° |
| 2026-05-05 07:21 | 15.55196 | 120.35520 | 19304 ft | 431 kts | 152° |
| 2026-05-05 07:21 | 15.52570 | 120.37002 | 18648 ft | 428 kts | 152° |
| 2026-05-05 07:21 | 15.49964 | 120.38473 | 17972 ft | 424 kts | 152° |
| 2026-05-05 07:21 | 15.47375 | 120.39928 | 17306 ft | 421 kts | 152° |
| 2026-05-05 07:22 | 15.44823 | 120.41360 | 16678 ft | 415 kts | 152° |
| 2026-05-05 07:22 | 15.42292 | 120.42782 | 16095 ft | 412 kts | 152° |
| 2026-05-05 07:22 | 15.39777 | 120.44165 | 15159 ft | 406 kts | 152° |
| 2026-05-05 07:22 | 15.37281 | 120.45488 | 14567 ft | 400 kts | 153° |
| 2026-05-05 07:23 | 15.34806 | 120.46770 | 14014 ft | 395 kts | 153° |
| 2026-05-05 07:23 | 15.32351 | 120.48035 | 13448 ft | 394 kts | 153° |
| 2026-05-05 07:23 | 15.29913 | 120.49297 | 12889 ft | 390 kts | 153° |
| 2026-05-05 07:23 | 15.27498 | 120.50551 | 12476 ft | 386 kts | 152° |
| 2026-05-05 07:24 | 15.25122 | 120.51788 | 11980 ft | 382 kts | 152° |
| 2026-05-05 07:24 | 15.22750 | 120.53024 | 11454 ft | 378 kts | 152° |
| 2026-05-05 07:24 | 15.20462 | 120.54218 | 11186 ft | 356 kts | 152° |
| 2026-05-05 07:24 | 15.18328 | 120.55330 | 11065 ft | 332 kts | 151° |
| 2026-05-05 07:25 | 15.16332 | 120.56370 | 10935 ft | 310 kts | 152° |
| 2026-05-05 07:25 | 15.14451 | 120.57353 | 10650 ft | 297 kts | 150° |
| 2026-05-05 07:25 | 15.12627 | 120.58311 | 10428 ft | 291 kts | 150° |
| 2026-05-05 07:25 | 15.10838 | 120.59253 | 10190 ft | 288 kts | 150° |
| 2026-05-05 07:26 | 15.09052 | 120.60191 | 9975 ft | 287 kts | 152° |
| 2026-05-05 07:26 | 15.07262 | 120.61129 | 9860 ft | 289 kts | 151° |
| 2026-05-05 07:26 | 15.05471 | 120.62067 | 9738 ft | 288 kts | 152° |
| 2026-05-05 07:26 | 15.03677 | 120.63002 | 9608 ft | 290 kts | 152° |
| 2026-05-05 07:27 | 15.01870 | 120.63944 | 9479 ft | 289 kts | 152° |
| 2026-05-05 07:27 | 15.00075 | 120.64880 | 9352 ft | 290 kts | 152° |
| 2026-05-05 07:27 | 14.98279 | 120.65819 | 9225 ft | 289 kts | 151° |
| 2026-05-05 07:27 | 14.96488 | 120.66755 | 8975 ft | 288 kts | 152° |
| 2026-05-05 07:28 | 14.94702 | 120.67687 | 8619 ft | 286 kts | 151° |
| 2026-05-05 07:28 | 14.92938 | 120.68608 | 8249 ft | 284 kts | 151° |
| 2026-05-05 07:28 | 14.91178 | 120.69525 | 7879 ft | 283 kts | 151° |
| 2026-05-05 07:28 | 14.89423 | 120.70438 | 7503 ft | 282 kts | 152° |
| 2026-05-05 07:29 | 14.87677 | 120.71347 | 7140 ft | 280 kts | 151° |
| 2026-05-05 07:29 | 14.85942 | 120.72252 | 6769 ft | 279 kts | 151° |
| 2026-05-05 07:29 | 14.84206 | 120.73157 | 6407 ft | 279 kts | 152° |
| 2026-05-05 07:29 | 14.82477 | 120.74057 | 6022 ft | 278 kts | 152° |
| 2026-05-05 07:30 | 14.80762 | 120.74949 | 5657 ft | 275 kts | 151° |
| 2026-05-05 07:30 | 14.77357 | 120.76724 | 4938 ft | 271 kts | 151° |
| 2026-05-05 07:30 | 14.75682 | 120.77604 | 4574 ft | 268 kts | 151° |
| 2026-05-05 07:31 | 14.74048 | 120.78459 | 4217 ft | 259 kts | 151° |
| 2026-05-05 07:31 | 14.72468 | 120.79277 | 3879 ft | 249 kts | 151° |
| 2026-05-05 07:31 | 14.70946 | 120.80063 | 3564 ft | 240 kts | 151° |
| 2026-05-05 07:31 | 14.69490 | 120.80819 | 3274 ft | 228 kts | 150° |
| 2026-05-05 07:32 | 14.68215 | 120.81707 | 2973 ft | 216 kts | 136° |
| 2026-05-05 07:32 | 14.67233 | 120.82753 | 2936 ft | 191 kts | 128° |
| 2026-05-05 07:32 | 14.66405 | 120.83734 | 2892 ft | 173 kts | 129° |
| 2026-05-05 07:32 | 14.65630 | 120.84645 | 2851 ft | 166 kts | 129° |
| 2026-05-05 07:33 | 14.64876 | 120.85535 | 2808 ft | 165 kts | 129° |
| 2026-05-05 07:33 | 14.64073 | 120.86484 | 2775 ft | 183 kts | 129° |
| 2026-05-05 07:33 | 14.63232 | 120.87479 | 2719 ft | 184 kts | 129° |
| 2026-05-05 07:33 | 14.62404 | 120.88457 | 2571 ft | 175 kts | 129° |
| 2026-05-05 07:34 | 14.61650 | 120.89342 | 2421 ft | 155 kts | 122° |
| 2026-05-05 07:34 | 14.60959 | 120.90157 | 2187 ft | 148 kts | 123° |
| 2026-05-05 07:34 | 14.60259 | 120.90923 | 1964 ft | 147 kts | 127° |
| 2026-05-05 07:34 | 14.59499 | 120.91627 | 1757 ft | 146 kts | 128° |
| 2026-05-05 07:35 | 14.58792 | 120.92357 | 1650 ft | 144 kts | 125° |
| 2026-05-05 07:35 | 14.58128 | 120.93123 | 1514 ft | 142 kts | 121° |
| 2026-05-05 07:35 | 14.57602 | 120.93964 | 1382 ft | 142 kts | 118° |
| 2026-05-05 07:35 | 14.57125 | 120.94861 | 1247 ft | 142 kts | 115° |
| 2026-05-05 07:36 | 14.56644 | 120.95755 | 1013 ft | 144 kts | 122° |
| 2026-05-05 07:36 | 14.56033 | 120.96559 | 862 ft | 142 kts | 125° |
| 2026-05-05 07:36 | 14.55368 | 120.97334 | 818 ft | 145 kts | 133° |
| 2026-05-05 07:36 | 14.54651 | 120.98059 | 675 ft | 144 kts | 134° |
| 2026-05-05 07:37 | 14.53937 | 120.98786 | 522 ft | 144 kts | 130° |
| 2026-05-05 07:37 | 14.53217 | 120.99516 | 309 ft | 145 kts | 132° |
| 2026-05-05 07:37 | 14.52518 | 121.00241 | 132 ft | 141 kts | 131° |
| 2026-05-05 07:37 | 14.51840 | 121.00947 | 67 ft | 131 kts | 133° |
| 2026-05-05 07:38 | 14.51409 | 121.01389 | 67 ft | 23 kts | 136° |
| 2026-05-05 07:38 | 14.51348 | 121.01474 | 60 ft | 12 kts | 96° |
| 2026-05-05 07:38 | 14.51382 | 121.01541 | 59 ft | 10 kts | 45° |
| 2026-05-05 07:38 | 14.51431 | 121.01589 | 69 ft | 9 kts | 38° |
| 2026-05-05 07:39 | 14.51481 | 121.01630 | 60 ft | 9 kts | 43° |
| 2026-05-05 07:39 | 14.51523 | 121.01673 | 61 ft | 8 kts | 44° |
| 2026-05-05 07:39 | 14.51564 | 121.01714 | 59 ft | 8 kts | 44° |
| 2026-05-05 07:39 | 14.51623 | 121.01771 | 62 ft | 14 kts | 36° |
| 2026-05-05 07:40 | 14.51710 | 121.01762 | 66 ft | 13 kts | 324° |
| 2026-05-05 07:40 | 14.51771 | 121.01701 | 69 ft | 10 kts | 314° |
| 2026-05-05 07:40 | 14.51768 | 121.01651 | 62 ft | 7 kts | 234° |
| 2026-05-05 07:40 | 14.51750 | 121.01631 | 69 ft | 0 kts | 224° |
| 2026-05-05 07:41 | 14.51747 | 121.01628 | 69 ft | 1 kts | 226° |
| 2026-05-05 07:41 | 14.51745 | 121.01626 | 69 ft | 0 kts | 226° |